sensor_id;sensor_type;location;lat;lon;timestamp;pressure;altitude;pressure_sealevel;temperature;humidity
69535;BME280;56754;51.568;5.048;2023-05-12T00:00:39;101608.72;;;16.37;70.02
69535;BME280;56754;51.568;5.048;2023-05-12T00:03:04;101610.66;;;16.36;69.73
69535;BME280;56754;51.568;5.048;2023-05-12T00:05:29;101611.44;;;16.37;70.08
69535;BME280;56754;51.568;5.048;2023-05-12T00:07:55;101614.13;;;16.37;69.86
69535;BME280;56754;51.568;5.048;2023-05-12T00:10:20;101610.66;;;16.36;70.02
69535;BME280;56754;51.568;5.048;2023-05-12T00:12:46;101608.25;;;16.35;69.70
69535;BME280;56754;51.568;5.048;2023-05-12T00:15:11;101608.25;;;16.35;69.62
69535;BME280;56754;51.568;5.048;2023-05-12T00:17:37;101609.38;;;16.34;69.36
69535;BME280;56754;51.568;5.048;2023-05-12T00:20:02;101599.72;;;16.33;69.53
69535;BME280;56754;51.568;5.048;2023-05-12T00:22:28;101605.13;;;16.33;69.34
69535;BME280;56754;51.568;5.048;2023-05-12T00:24:53;101602.75;;;16.31;69.27
69535;BME280;56754;51.568;5.048;2023-05-12T00:27:19;101610.03;;;16.31;69.01
69535;BME280;56754;51.568;5.048;2023-05-12T00:29:44;101596.44;;;16.27;69.25
69535;BME280;56754;51.568;5.048;2023-05-12T00:32:09;101598.00;;;16.28;69.17
69535;BME280;56754;51.568;5.048;2023-05-12T00:34:35;101600.22;;;16.26;69.16
69535;BME280;56754;51.568;5.048;2023-05-12T00:37:00;101599.44;;;16.26;69.04
69535;BME280;56754;51.568;5.048;2023-05-12T00:39:25;101591.69;;;16.24;68.94
69535;BME280;56754;51.568;5.048;2023-05-12T00:41:56;101597.09;;;16.24;68.87
69535;BME280;56754;51.568;5.048;2023-05-12T00:44:21;101595.19;;;16.25;69.34
69535;BME280;56754;51.568;5.048;2023-05-12T00:46:47;101592.78;;;16.23;69.45
69535;BME280;56754;51.568;5.048;2023-05-12T00:49:12;101593.94;;;16.22;69.27
69535;BME280;56754;51.568;5.048;2023-05-12T00:51:38;101591.22;;;16.22;69.21
69535;BME280;56754;51.568;5.048;2023-05-12T00:54:04;101595.06;;;16.21;68.80
69535;BME280;56754;51.568;5.048;2023-05-12T00:56:30;101595.38;;;16.20;69.10
69535;BME280;56754;51.568;5.048;2023-05-12T00:58:56;101583.00;;;16.19;68.80
69535;BME280;56754;51.568;5.048;2023-05-12T01:01:22;101583.78;;;16.19;69.11
69535;BME280;56754;51.568;5.048;2023-05-12T01:03:47;101588.41;;;16.19;69.07
69535;BME280;56754;51.568;5.048;2023-05-12T01:06:43;101589.50;;;16.18;69.34
69535;BME280;56754;51.568;5.048;2023-05-12T01:09:09;101582.53;;;16.17;68.76
69535;BME280;56754;51.568;5.048;2023-05-12T01:11:36;101581.75;;;16.16;68.68
69535;BME280;56754;51.568;5.048;2023-05-12T01:14:02;101580.19;;;16.15;69.02
69535;BME280;56754;51.568;5.048;2023-05-12T01:16:31;101575.09;;;16.13;69.22
69535;BME280;56754;51.568;5.048;2023-05-12T01:19:00;101582.41;;;16.13;69.22
69535;BME280;56754;51.568;5.048;2023-05-12T01:21:29;101575.44;;;16.12;69.19
69535;BME280;56754;51.568;5.048;2023-05-12T01:23:57;101578.47;;;16.10;68.99
69535;BME280;56754;51.568;5.048;2023-05-12T01:26:25;101581.16;;;16.10;69.46
69535;BME280;56754;51.568;5.048;2023-05-12T01:28:51;101568.81;;;16.09;69.42
69535;BME280;56754;51.568;5.048;2023-05-12T01:31:17;101573.38;;;16.09;69.20
69535;BME280;56754;51.568;5.048;2023-05-12T01:33:43;101583.38;;;16.08;69.34
69535;BME280;56754;51.568;5.048;2023-05-12T01:36:09;101571.81;;;16.08;69.43
69535;BME280;56754;51.568;5.048;2023-05-12T01:38:34;101572.94;;;16.07;69.02
69535;BME280;56754;51.568;5.048;2023-05-12T01:41:00;101567.06;;;16.05;69.02
69535;BME280;56754;51.568;5.048;2023-05-12T01:43:25;101568.97;;;16.04;69.11
69535;BME280;56754;51.568;5.048;2023-05-12T01:45:50;101569.31;;;16.03;69.15
69535;BME280;56754;51.568;5.048;2023-05-12T01:48:16;101564.72;;;16.03;69.23
69535;BME280;56754;51.568;5.048;2023-05-12T01:50:42;101570.44;;;16.02;69.04
69535;BME280;56754;51.568;5.048;2023-05-12T01:53:07;101570.78;;;16.00;69.01
69535;BME280;56754;51.568;5.048;2023-05-12T01:55:32;101569.16;;;15.99;68.94
69535;BME280;56754;51.568;5.048;2023-05-12T01:57:58;101563.78;;;15.99;69.12
69535;BME280;56754;51.568;5.048;2023-05-12T02:00:23;101566.47;;;15.99;69.04
69535;BME280;56754;51.568;5.048;2023-05-12T02:02:48;101558.72;;;15.98;68.82
69535;BME280;56754;51.568;5.048;2023-05-12T02:05:14;101568.38;;;15.99;69.51
69535;BME280;56754;51.568;5.048;2023-05-12T02:07:39;101564.13;;;15.98;69.47
69535;BME280;56754;51.568;5.048;2023-05-12T02:10:05;101559.03;;;15.96;69.03
69535;BME280;56754;51.568;5.048;2023-05-12T02:12:31;101558.25;;;15.96;69.40
69535;BME280;56754;51.568;5.048;2023-05-12T02:14:56;101558.25;;;15.96;69.05
69535;BME280;56754;51.568;5.048;2023-05-12T02:17:22;101556.69;;;15.95;69.16
69535;BME280;56754;51.568;5.048;2023-05-12T02:19:47;101557.47;;;15.95;69.48
69535;BME280;56754;51.568;5.048;2023-05-12T02:22:12;101554.78;;;15.95;69.59
69535;BME280;56754;51.568;5.048;2023-05-12T02:24:38;101548.91;;;15.93;69.28
69535;BME280;56754;51.568;5.048;2023-05-12T02:27:03;101547.34;;;15.92;69.51
69535;BME280;56754;51.568;5.048;2023-05-12T02:29:28;101544.66;;;15.92;69.35
69535;BME280;56754;51.568;5.048;2023-05-12T02:31:54;101545.75;;;15.91;69.47
69535;BME280;56754;51.568;5.048;2023-05-12T02:34:19;101540.34;;;15.91;69.40
69535;BME280;56754;51.568;5.048;2023-05-12T02:36:44;101539.25;;;15.92;69.43
69535;BME280;56754;51.568;5.048;2023-05-12T02:39:10;101534.19;;;15.90;69.42
69535;BME280;56754;51.568;5.048;2023-05-12T02:41:35;101527.22;;;15.89;69.57
69535;BME280;56754;51.568;5.048;2023-05-12T02:44:00;101533.75;;;15.88;69.15
69535;BME280;56754;51.568;5.048;2023-05-12T02:46:25;101529.44;;;15.87;69.68
69535;BME280;56754;51.568;5.048;2023-05-12T02:48:51;101519.44;;;15.88;69.67
69535;BME280;56754;51.568;5.048;2023-05-12T02:51:16;101522.94;;;15.88;69.52
69535;BME280;56754;51.568;5.048;2023-05-12T02:53:41;101519.78;;;15.86;69.66
69535;BME280;56754;51.568;5.048;2023-05-12T02:56:07;101526.75;;;15.87;69.67
69535;BME280;56754;51.568;5.048;2023-05-12T02:58:32;101517.09;;;15.86;69.60
69535;BME280;56754;51.568;5.048;2023-05-12T03:00:58;101519.00;;;15.86;69.62
69535;BME280;56754;51.568;5.048;2023-05-12T03:03:23;101505.53;;;15.86;69.47
69535;BME280;56754;51.568;5.048;2023-05-12T03:05:48;101514.72;;;15.85;69.49
69535;BME280;56754;51.568;5.048;2023-05-12T03:08:14;101509.31;;;15.85;69.86
69535;BME280;56754;51.568;5.048;2023-05-12T03:10:39;101502.03;;;15.85;69.88
69535;BME280;56754;51.568;5.048;2023-05-12T03:13:04;101503.94;;;15.85;69.77
69535;BME280;56754;51.568;5.048;2023-05-12T03:15:30;101502.34;;;15.84;69.99
69535;BME280;56754;51.568;5.048;2023-05-12T03:17:55;101502.34;;;15.84;69.91
69535;BME280;56754;51.568;5.048;2023-05-12T03:20:20;101504.28;;;15.83;70.28
69535;BME280;56754;51.568;5.048;2023-05-12T03:22:46;101490.00;;;15.83;70.11
69535;BME280;56754;51.568;5.048;2023-05-12T03:25:11;101495.41;;;15.83;70.10
69535;BME280;56754;51.568;5.048;2023-05-12T03:27:37;101489.19;;;15.82;70.00
69535;BME280;56754;51.568;5.048;2023-05-12T03:30:02;101492.72;;;15.83;70.03
69535;BME280;56754;51.568;5.048;2023-05-12T03:32:28;101491.88;;;15.82;70.22
69535;BME280;56754;51.568;5.048;2023-05-12T03:34:53;101492.72;;;15.83;70.14
69535;BME280;56754;51.568;5.048;2023-05-12T03:37:18;101493.81;;;15.82;69.91
69535;BME280;56754;51.568;5.048;2023-05-12T03:39:44;101487.63;;;15.81;69.98
69535;BME280;56754;51.568;5.048;2023-05-12T03:42:09;101477.97;;;15.80;69.99
69535;BME280;56754;51.568;5.048;2023-05-12T03:44:34;101486.84;;;15.81;69.94
69535;BME280;56754;51.568;5.048;2023-05-12T03:47:00;101471.78;;;15.80;70.16
69535;BME280;56754;51.568;5.048;2023-05-12T03:49:25;101476.06;;;15.81;70.14
69535;BME280;56754;51.568;5.048;2023-05-12T03:51:50;101478.75;;;15.81;70.01
69535;BME280;56754;51.568;5.048;2023-05-12T03:54:15;101478.75;;;15.81;70.19
69535;BME280;56754;51.568;5.048;2023-05-12T03:56:41;101478.75;;;15.81;70.27
69535;BME280;56754;51.568;5.048;2023-05-12T03:59:06;101477.19;;;15.80;70.45
69535;BME280;56754;51.568;5.048;2023-05-12T04:01:31;101480.66;;;15.80;70.37
69535;BME280;56754;51.568;5.048;2023-05-12T04:03:57;101477.19;;;15.80;70.24
69535;BME280;56754;51.568;5.048;2023-05-12T04:06:22;101475.28;;;15.80;70.47
69535;BME280;56754;51.568;5.048;2023-05-12T04:08:47;101476.06;;;15.81;70.38
69535;BME280;56754;51.568;5.048;2023-05-12T04:11:13;101479.06;;;15.79;70.37
69535;BME280;56754;51.568;5.048;2023-05-12T04:13:38;101480.19;;;15.78;70.24
69535;BME280;56754;51.568;5.048;2023-05-12T04:16:04;101474.81;;;15.78;70.39
69535;BME280;56754;51.568;5.048;2023-05-12T04:18:29;101475.59;;;15.79;70.46
69535;BME280;56754;51.568;5.048;2023-05-12T04:20:55;101480.97;;;15.79;70.51
69535;BME280;56754;51.568;5.048;2023-05-12T04:23:20;101478.28;;;15.79;70.33
69535;BME280;56754;51.568;5.048;2023-05-12T04:25:46;101477.03;;;15.76;70.38
69535;BME280;56754;51.568;5.048;2023-05-12T04:28:11;101481.31;;;15.77;70.59
69535;BME280;56754;51.568;5.048;2023-05-12T04:30:40;101478.94;;;15.76;70.41
69535;BME280;56754;51.568;5.048;2023-05-12T04:33:06;101475.16;;;15.77;70.50
69535;BME280;56754;51.568;5.048;2023-05-12T04:35:31;101478.94;;;15.76;70.54
69535;BME280;56754;51.568;5.048;2023-05-12T04:37:57;101473.56;;;15.76;70.52
69535;BME280;56754;51.568;5.048;2023-05-12T04:40:22;101472.78;;;15.75;70.46
69535;BME280;56754;51.568;5.048;2023-05-12T04:42:47;101472.78;;;15.75;70.50
69535;BME280;56754;51.568;5.048;2023-05-12T04:45:13;101473.91;;;15.74;70.32
69535;BME280;56754;51.568;5.048;2023-05-12T04:47:38;101476.25;;;15.76;70.38
69535;BME280;56754;51.568;5.048;2023-05-12T04:50:04;101482.78;;;15.75;70.55
69535;BME280;56754;51.568;5.048;2023-05-12T04:52:29;101481.97;;;15.74;70.15
69535;BME280;56754;51.568;5.048;2023-05-12T04:54:54;101480.06;;;15.75;70.63
69535;BME280;56754;51.568;5.048;2023-05-12T04:57:20;101475.81;;;15.74;70.67
69535;BME280;56754;51.568;5.048;2023-05-12T04:59:45;101482.78;;;15.75;70.34
69535;BME280;56754;51.568;5.048;2023-05-12T05:02:10;101488.16;;;15.75;70.62
69535;BME280;56754;51.568;5.048;2023-05-12T05:04:36;101480.84;;;15.75;70.60
69535;BME280;56754;51.568;5.048;2023-05-12T05:07:02;101483.56;;;15.75;70.09
69535;BME280;56754;51.568;5.048;2023-05-12T05:09:27;101496.25;;;15.75;70.50
69535;BME280;56754;51.568;5.048;2023-05-12T05:11:52;101490.84;;;15.75;70.45
69535;BME280;56754;51.568;5.048;2023-05-12T05:14:18;101497.81;;;15.76;70.45
69535;BME280;56754;51.568;5.048;2023-05-12T05:16:43;101492.41;;;15.76;70.40
69535;BME280;56754;51.568;5.048;2023-05-12T05:19:09;101494.34;;;15.75;70.58
69535;BME280;56754;51.568;5.048;2023-05-12T05:21:34;101503.53;;;15.74;70.40
69535;BME280;56754;51.568;5.048;2023-05-12T05:23:59;101495.13;;;15.76;70.43
69535;BME280;56754;51.568;5.048;2023-05-12T05:26:25;101495.13;;;15.76;70.53
69535;BME280;56754;51.568;5.048;2023-05-12T05:28:50;101501.63;;;15.75;70.47
69535;BME280;56754;51.568;5.048;2023-05-12T05:31:15;101502.41;;;15.75;70.58
69535;BME280;56754;51.568;5.048;2023-05-12T05:33:41;101502.41;;;15.75;70.45
69535;BME280;56754;51.568;5.048;2023-05-12T05:36:07;101501.63;;;15.75;70.63
69535;BME280;56754;51.568;5.048;2023-05-12T05:38:32;101511.28;;;15.76;70.39
69535;BME280;56754;51.568;5.048;2023-05-12T05:40:57;101512.41;;;15.75;70.52
69535;BME280;56754;51.568;5.048;2023-05-12T05:43:22;101513.97;;;15.76;70.41
69535;BME280;56754;51.568;5.048;2023-05-12T05:45:48;101515.91;;;15.75;70.40
69535;BME280;56754;51.568;5.048;2023-05-12T05:48:14;101513.97;;;15.76;70.48
69535;BME280;56754;51.568;5.048;2023-05-12T05:50:39;101511.28;;;15.76;70.25
69535;BME280;56754;51.568;5.048;2023-05-12T05:53:04;101507.81;;;15.75;70.41
69535;BME280;56754;51.568;5.048;2023-05-12T05:55:30;101515.91;;;15.75;70.34
69535;BME280;56754;51.568;5.048;2023-05-12T05:57:55;101518.28;;;15.77;70.55
69535;BME280;56754;51.568;5.048;2023-05-12T06:00:20;101513.97;;;15.76;70.55
69535;BME280;56754;51.568;5.048;2023-05-12T06:02:46;101522.06;;;15.76;70.41
69535;BME280;56754;51.568;5.048;2023-05-12T06:05:11;101515.91;;;15.75;70.38
69535;BME280;56754;51.568;5.048;2023-05-12T06:07:36;101529.38;;;15.75;70.63
69535;BME280;56754;51.568;5.048;2023-05-12T06:10:02;101528.59;;;15.75;70.44
69535;BME280;56754;51.568;5.048;2023-05-12T06:12:27;101530.16;;;15.76;70.63
69535;BME280;56754;51.568;5.048;2023-05-12T06:14:52;101532.84;;;15.76;70.61
69535;BME280;56754;51.568;5.048;2023-05-12T06:17:17;101536.66;;;15.75;70.39
69535;BME280;56754;51.568;5.048;2023-05-12T06:19:43;101538.25;;;15.76;70.66
69535;BME280;56754;51.568;5.048;2023-05-12T06:22:08;101540.63;;;15.77;70.68
69535;BME280;56754;51.568;5.048;2023-05-12T06:24:33;101541.41;;;15.78;70.46
69535;BME280;56754;51.568;5.048;2023-05-12T06:26:59;101539.50;;;15.78;70.55
69535;BME280;56754;51.568;5.048;2023-05-12T06:29:24;101534.09;;;15.78;70.57
69535;BME280;56754;51.568;5.048;2023-05-12T06:31:49;101549.16;;;15.79;70.60
69535;BME280;56754;51.568;5.048;2023-05-12T06:34:15;101548.84;;;15.81;70.63
69535;BME280;56754;51.568;5.048;2023-05-12T06:36:40;101550.41;;;15.82;70.55
69535;BME280;56754;51.568;5.048;2023-05-12T06:39:05;101543.56;;;15.84;70.53
69535;BME280;56754;51.568;5.048;2023-05-12T06:41:31;101543.72;;;15.88;70.56
69535;BME280;56754;51.568;5.048;2023-05-12T06:43:56;101549.69;;;15.93;70.49
69535;BME280;56754;51.568;5.048;2023-05-12T06:46:21;101544.13;;;15.99;70.62
69535;BME280;56754;51.568;5.048;2023-05-12T06:48:47;101551.38;;;16.07;71.20
69535;BME280;56754;51.568;5.048;2023-05-12T06:51:12;101558.13;;;16.13;71.27
69535;BME280;56754;51.568;5.048;2023-05-12T06:53:39;101555.91;;;16.15;70.75
69535;BME280;56754;51.568;5.048;2023-05-12T06:56:04;101562.53;;;16.18;70.76
69535;BME280;56754;51.568;5.048;2023-05-12T06:58:30;101559.19;;;16.21;71.07
69535;BME280;56754;51.568;5.048;2023-05-12T07:00:55;101560.78;;;16.22;71.04
69535;BME280;56754;51.568;5.048;2023-05-12T07:03:20;101563.91;;;16.24;70.92
69535;BME280;56754;51.568;5.048;2023-05-12T07:05:46;101565.50;;;16.25;70.63
69535;BME280;56754;51.568;5.048;2023-05-12T07:08:11;101568.22;;;16.25;70.64
69535;BME280;56754;51.568;5.048;2023-05-12T07:10:37;101572.47;;;16.26;70.79
69535;BME280;56754;51.568;5.048;2023-05-12T07:13:02;101566.28;;;16.25;70.68
69535;BME280;56754;51.568;5.048;2023-05-12T07:15:28;101569.78;;;16.26;70.64
69535;BME280;56754;51.568;5.048;2023-05-12T07:17:53;101572.16;;;16.27;70.58
69535;BME280;56754;51.568;5.048;2023-05-12T07:20:19;101582.59;;;16.29;70.54
69535;BME280;56754;51.568;5.048;2023-05-12T07:22:44;101576.88;;;16.30;70.72
69535;BME280;56754;51.568;5.048;2023-05-12T07:25:09;101590.03;;;16.32;70.76
69535;BME280;56754;51.568;5.048;2023-05-12T07:27:35;101578.16;;;16.33;70.75
69535;BME280;56754;51.568;5.048;2023-05-12T07:30:00;101582.41;;;16.34;70.92
69535;BME280;56754;51.568;5.048;2023-05-12T07:32:25;101576.66;;;16.35;70.75
69535;BME280;56754;51.568;5.048;2023-05-12T07:34:51;101583.66;;;16.36;71.03
69535;BME280;56754;51.568;5.048;2023-05-12T07:37:16;101584.09;;;16.38;70.92
69535;BME280;56754;51.568;5.048;2023-05-12T07:39:41;101588.41;;;16.40;70.88
69535;BME280;56754;51.568;5.048;2023-05-12T07:42:07;101581.09;;;16.40;70.94
69535;BME280;56754;51.568;5.048;2023-05-12T07:44:32;101593.13;;;16.43;71.03
69535;BME280;56754;51.568;5.048;2023-05-12T07:46:57;101587.41;;;16.44;70.94
69535;BME280;56754;51.568;5.048;2023-05-12T07:49:22;101578.97;;;16.46;70.82
69535;BME280;56754;51.568;5.048;2023-05-12T07:51:48;101588.66;;;16.47;70.80
69535;BME280;56754;51.568;5.048;2023-05-12T07:54:13;101591.81;;;16.49;70.55
69535;BME280;56754;51.568;5.048;2023-05-12T07:56:38;101583.38;;;16.50;70.63
69535;BME280;56754;51.568;5.048;2023-05-12T07:59:04;101588.44;;;16.52;70.64
69535;BME280;56754;51.568;5.048;2023-05-12T08:01:29;101585.44;;;16.53;70.41
69535;BME280;56754;51.568;5.048;2023-05-12T08:03:54;101595.56;;;16.56;70.22
69535;BME280;56754;51.568;5.048;2023-05-12T08:06:20;101592.88;;;16.56;70.33
69535;BME280;56754;51.568;5.048;2023-05-12T08:08:45;101596.78;;;16.59;69.97
69535;BME280;56754;51.568;5.048;2023-05-12T08:11:10;101599.19;;;16.60;69.97
69535;BME280;56754;51.568;5.048;2023-05-12T08:13:36;101596.94;;;16.63;69.87
69535;BME280;56754;51.568;5.048;2023-05-12T08:16:01;101603.91;;;16.64;70.02
69535;BME280;56754;51.568;5.048;2023-05-12T08:18:27;101608.97;;;16.65;70.05
69535;BME280;56754;51.568;5.048;2023-05-12T08:20:53;101612.91;;;16.68;69.87
69535;BME280;56754;51.568;5.048;2023-05-12T08:23:18;101620.69;;;16.69;69.73
69535;BME280;56754;51.568;5.048;2023-05-12T08:25:44;101613.06;;;16.71;69.48
69535;BME280;56754;51.568;5.048;2023-05-12T08:28:10;101614.63;;;16.72;69.41
69535;BME280;56754;51.568;5.048;2023-05-12T08:30:36;101618.91;;;16.73;69.49
69535;BME280;56754;51.568;5.048;2023-05-12T08:33:02;101621.28;;;16.75;69.62
69535;BME280;56754;51.568;5.048;2023-05-12T08:35:27;101625.25;;;16.77;69.40
69535;BME280;56754;51.568;5.048;2023-05-12T08:37:53;101625.69;;;16.79;69.87
69535;BME280;56754;51.568;5.048;2023-05-12T08:40:22;101629.34;;;16.83;69.73
69535;BME280;56754;51.568;5.048;2023-05-12T08:45:35;101615.97;;;16.87;69.41
69535;BME280;56754;51.568;5.048;2023-05-12T08:48:01;101619.91;;;16.90;69.30
69535;BME280;56754;51.568;5.048;2023-05-12T08:50:29;101626.88;;;16.91;69.26
69535;BME280;56754;51.568;5.048;2023-05-12T08:52:57;101627.34;;;16.93;69.14
69535;BME280;56754;51.568;5.048;2023-05-12T08:55:23;101637.78;;;16.94;69.24
69535;BME280;56754;51.568;5.048;2023-05-12T08:57:50;101636.69;;;16.95;69.18
69535;BME280;56754;51.568;5.048;2023-05-12T09:00:16;101642.09;;;16.95;69.05
69535;BME280;56754;51.568;5.048;2023-05-12T09:02:42;101638.25;;;16.96;68.95
69535;BME280;56754;51.568;5.048;2023-05-12T09:05:09;101639.03;;;16.97;68.93
69535;BME280;56754;51.568;5.048;2023-05-12T09:07:35;101643.66;;;16.96;69.03
69535;BME280;56754;51.568;5.048;2023-05-12T09:10:04;101633.66;;;16.97;68.84
69535;BME280;56754;51.568;5.048;2023-05-12T09:12:33;101636.03;;;16.98;69.01
69535;BME280;56754;51.568;5.048;2023-05-12T09:15:03;101643.78;;;17.00;69.02
69535;BME280;56754;51.568;5.048;2023-05-12T09:17:29;101646.16;;;17.01;68.94
69535;BME280;56754;51.568;5.048;2023-05-12T09:19:54;101644.25;;;17.02;68.88
69535;BME280;56754;51.568;5.048;2023-05-12T09:22:30;101637.72;;;17.03;68.89
69535;BME280;56754;51.568;5.048;2023-05-12T09:24:55;101638.50;;;17.03;68.69
69535;BME280;56754;51.568;5.048;2023-05-12T09:27:28;101645.50;;;17.04;68.88
69535;BME280;56754;51.568;5.048;2023-05-12T09:29:53;101651.34;;;17.06;68.59
69535;BME280;56754;51.568;5.048;2023-05-12T09:32:32;101649.09;;;17.09;68.65
69535;BME280;56754;51.568;5.048;2023-05-12T09:35:02;101642.59;;;17.10;68.57
69535;BME280;56754;51.568;5.048;2023-05-12T09:37:32;101643.03;;;17.12;68.54
69535;BME280;56754;51.568;5.048;2023-05-12T09:40:02;101646.50;;;17.12;68.46
69535;BME280;56754;51.568;5.048;2023-05-12T09:42:30;101641.56;;;17.14;68.40
69535;BME280;56754;51.568;5.048;2023-05-12T09:45:02;101637.44;;;17.17;68.49
69535;BME280;56754;51.568;5.048;2023-05-12T09:47:33;101649.47;;;17.19;68.53
69535;BME280;56754;51.568;5.048;2023-05-12T09:50:01;101647.56;;;17.20;68.41
69535;BME280;56754;51.568;5.048;2023-05-12T09:52:26;101646.44;;;17.21;68.40
69535;BME280;56754;51.568;5.048;2023-05-12T09:54:51;101655.31;;;17.21;68.20
69535;BME280;56754;51.568;5.048;2023-05-12T09:57:19;101649.59;;;17.23;68.45
69535;BME280;56754;51.568;5.048;2023-05-12T09:59:46;101651.16;;;17.24;68.08
69535;BME280;56754;51.568;5.048;2023-05-12T10:02:12;101649.72;;;17.26;68.12
69535;BME280;56754;51.568;5.048;2023-05-12T10:04:54;101639.38;;;17.28;68.22
69535;BME280;56754;51.568;5.048;2023-05-12T10:07:23;101637.13;;;17.31;68.12
69535;BME280;56754;51.568;5.048;2023-05-12T10:09:49;101648.72;;;17.31;68.05
69535;BME280;56754;51.568;5.048;2023-05-12T10:12:15;101644.09;;;17.32;67.93
69535;BME280;56754;51.568;5.048;2023-05-12T10:14:41;101650.28;;;17.32;67.97
69535;BME280;56754;51.568;5.048;2023-05-12T10:17:08;101653.78;;;17.33;67.70
69535;BME280;56754;51.568;5.048;2023-05-12T10:19:34;101650.75;;;17.34;67.73
69535;BME280;56754;51.568;5.048;2023-05-12T10:21:59;101653.91;;;17.36;67.68
69535;BME280;56754;51.568;5.048;2023-05-12T10:24:26;101658.19;;;17.37;67.55
69535;BME280;56754;51.568;5.048;2023-05-12T10:26:54;101651.66;;;17.38;67.64
69535;BME280;56754;51.568;5.048;2023-05-12T10:29:21;101662.13;;;17.40;67.60
69535;BME280;56754;51.568;5.048;2023-05-12T10:31:48;101651.31;;;17.40;67.55
69535;BME280;56754;51.568;5.048;2023-05-12T10:34:16;101655.59;;;17.41;67.67
69535;BME280;56754;51.568;5.048;2023-05-12T10:36:45;101658.31;;;17.41;67.61
69535;BME280;56754;51.568;5.048;2023-05-12T10:39:12;101656.06;;;17.43;67.87
69535;BME280;56754;51.568;5.048;2023-05-12T10:41:37;101654.94;;;17.44;67.66
69535;BME280;56754;51.568;5.048;2023-05-12T10:44:03;101646.50;;;17.45;67.56
69535;BME280;56754;51.568;5.048;2023-05-12T10:46:28;101668.13;;;17.45;67.38
69535;BME280;56754;51.568;5.048;2023-05-12T10:49:08;101675.09;;;17.46;67.69
69535;BME280;56754;51.568;5.048;2023-05-12T10:51:46;101661.56;;;17.46;67.84
69535;BME280;56754;51.568;5.048;2023-05-12T10:54:19;101669.34;;;17.48;67.46
69535;BME280;56754;51.568;5.048;2023-05-12T10:56:44;101665.53;;;17.49;67.31
69535;BME280;56754;51.568;5.048;2023-05-12T10:59:15;101665.19;;;17.50;67.42
69535;BME280;56754;51.568;5.048;2023-05-12T11:04:45;101655.97;;;17.51;67.12
69535;BME280;56754;51.568;5.048;2023-05-12T11:07:12;101653.25;;;17.51;67.44
69535;BME280;56754;51.568;5.048;2023-05-12T11:09:40;101655.19;;;17.51;67.33
69535;BME280;56754;51.568;5.048;2023-05-12T11:12:07;101660.22;;;17.52;66.98
69535;BME280;56754;51.568;5.048;2023-05-12T11:14:34;101663.72;;;17.53;66.98
69535;BME280;56754;51.568;5.048;2023-05-12T11:16:59;101669.91;;;17.54;66.91
69535;BME280;56754;51.568;5.048;2023-05-12T11:19:25;101668.44;;;17.56;67.19
69535;BME280;56754;51.568;5.048;2023-05-12T11:21:51;101671.16;;;17.56;66.77
69535;BME280;56754;51.568;5.048;2023-05-12T11:24:16;101671.63;;;17.58;66.77
69535;BME280;56754;51.568;5.048;2023-05-12T11:26:41;101677.50;;;17.60;67.02
69535;BME280;56754;51.568;5.048;2023-05-12T11:29:07;101680.97;;;17.61;66.66
69535;BME280;56754;51.568;5.048;2023-05-12T11:31:32;101674.78;;;17.60;66.72
69535;BME280;56754;51.568;5.048;2023-05-12T11:34:02;101691.78;;;17.61;66.83
69535;BME280;56754;51.568;5.048;2023-05-12T11:36:27;101686.38;;;17.61;66.67
69535;BME280;56754;51.568;5.048;2023-05-12T11:38:52;101695.28;;;17.61;66.81
69535;BME280;56754;51.568;5.048;2023-05-12T11:41:22;101703.03;;;17.63;66.70
69535;BME280;56754;51.568;5.048;2023-05-12T11:43:48;101711.16;;;17.63;66.71
69535;BME280;56754;51.568;5.048;2023-05-12T11:46:23;101698.75;;;17.62;66.74
69535;BME280;56754;51.568;5.048;2023-05-12T11:48:55;101710.38;;;17.62;66.63
69535;BME280;56754;51.568;5.048;2023-05-12T11:51:21;101705.75;;;17.63;66.60
69535;BME280;56754;51.568;5.048;2023-05-12T11:53:46;101704.63;;;17.64;66.61
69535;BME280;56754;51.568;5.048;2023-05-12T11:56:22;101702.38;;;17.66;66.45
69535;BME280;56754;51.568;5.048;2023-05-12T11:58:52;101708.59;;;17.66;66.62
69535;BME280;56754;51.568;5.048;2023-05-12T12:01:18;101710.94;;;17.68;66.82
69535;BME280;56754;51.568;5.048;2023-05-12T12:03:50;101710.94;;;17.68;66.80
69535;BME280;56754;51.568;5.048;2023-05-12T12:06:16;101719.50;;;17.70;66.43
69535;BME280;56754;51.568;5.048;2023-05-12T12:08:53;101725.69;;;17.70;66.58
69535;BME280;56754;51.568;5.048;2023-05-12T12:11:19;101727.28;;;17.71;66.20
69535;BME280;56754;51.568;5.048;2023-05-12T12:13:49;101721.19;;;17.74;66.44
69535;BME280;56754;51.568;5.048;2023-05-12T12:16:15;101727.06;;;17.77;65.99
69535;BME280;56754;51.568;5.048;2023-05-12T12:18:40;101728.69;;;17.78;66.17
69535;BME280;56754;51.568;5.048;2023-05-12T12:21:05;101728.69;;;17.78;66.09
69535;BME280;56754;51.568;5.048;2023-05-12T12:23:31;101732.97;;;17.79;66.07
69535;BME280;56754;51.568;5.048;2023-05-12T12:25:56;101747.72;;;17.81;66.00
69535;BME280;56754;51.568;5.048;2023-05-12T12:28:21;101741.97;;;17.83;65.75
69535;BME280;56754;51.568;5.048;2023-05-12T12:30:47;101752.91;;;17.86;65.62
69535;BME280;56754;51.568;5.048;2023-05-12T12:33:12;101743.69;;;17.87;65.66
69535;BME280;56754;51.568;5.048;2023-05-12T12:35:37;101746.81;;;17.89;65.48
69535;BME280;56754;51.568;5.048;2023-05-12T12:38:02;101758.09;;;17.91;65.36
69535;BME280;56754;51.568;5.048;2023-05-12T12:40:29;101748.88;;;17.92;65.40
69535;BME280;56754;51.568;5.048;2023-05-12T12:42:54;101759.03;;;17.95;65.88
69535;BME280;56754;51.568;5.048;2023-05-12T12:45:20;101764.09;;;17.97;65.86
69535;BME280;56754;51.568;5.048;2023-05-12T12:47:45;101754.50;;;18.00;65.40
69535;BME280;56754;51.568;5.048;2023-05-12T12:50:10;101766.22;;;18.04;65.13